CST,Max TemperatureF,Mean TemperatureF,Min TemperatureF,Max Dew PointF,MeanDew PointF,Min DewpointF,Max Humidity, Mean Humidity, Min Humidity, Max Sea Level PressureIn, Mean Sea Level PressureIn, Min Sea Level PressureIn, Max VisibilityMiles, Mean VisibilityMiles, Min VisibilityMiles, Max Wind SpeedMPH, Mean Wind SpeedMPH, Max Gust SpeedMPH,PrecipitationIn, CloudCover, Events, WindDirDegrees
2012-11-1,43,38,32,30,23,13,82,62,41,29.99,29.89,29.81,10,10,10,17,8,23,T,7,,325
2012-11-2,44,36,27,28,22,18,82,59,36,30.23,30.12,30.01,10,10,10,10,3,15,0.00,0,,335
2012-11-3,42,34,26,24,23,20,81,64,46,30.30,30.26,30.24,10,10,10,7,3,10,0.00,2,,56
2012-11-4,43,32,20,25,22,17,96,73,49,30.31,30.27,30.22,10,10,10,9,1,12,0.00,0,,101
2012-11-5,38,29,20,25,23,18,92,76,59,30.29,30.23,30.10,10,10,8,8,3,13,0.00,2,,96
2012-11-6,34,31,28,34,31,24,100,91,82,30.07,29.88,29.78,10,2,0,14,6,18,0.11,8,Fog-Snow,152
2012-11-7,40,37,33,34,33,32,100,90,79,30.15,30.05,29.90,10,5,1,8,3,9,0.00,8,,281
2012-11-8,48,41,34,35,34,32,92,77,61,30.15,30.08,29.99,10,8,5,18,6,23,0.00,4,,167
2012-11-9,46,39,31,37,35,30,100,85,70,30.12,30.08,30.04,10,8,2,20,7,24,0.00,6,,89
2012-11-10,53,46,38,50,43,35,100,93,85,30.09,29.85,29.69,10,4,1,17,10,23,0.07,7,Rain,102
2012-11-11,61,44,27,54,45,21,100,80,60,29.87,29.68,29.60,10,7,2,23,13,26,0.88,8,Rain,224
2012-11-12,27,24,21,21,15,10,81,72,62,30.27,29.99,29.88,10,6,1,23,14,32,T,8,Snow,259
2012-11-13,36,29,21,22,17,15,77,62,47,30.44,30.39,30.29,10,10,2,15,7,17,0.00,4,Rain,220
2012-11-14,48,39,30,30,26,21,70,58,45,30.42,30.34,30.27,10,10,10,16,9,21,0.00,7,,167
2012-11-15,50,41,32,32,29,22,76,61,46,30.41,30.27,30.22,10,10,10,15,6,21,0.00,4,,228
2012-11-16,43,34,25,33,26,21,88,71,53,30.54,30.47,30.40,10,10,6,12,4,15,0.00,3,,122
2012-11-17,51,43,35,37,34,31,92,74,56,30.48,30.44,30.40,9,4,1,14,6,17,0.00,5,,153
2012-11-18,56,45,33,33,31,30,89,64,38,30.39,30.32,30.25,10,8,4,18,8,24,0.00,2,,144
2012-11-19,51,46,40,37,35,32,76,66,56,30.24,30.15,30.08,10,8,6,10,4,13,T,7,,138
2012-11-20,57,45,33,39,35,32,100,78,55,30.15,30.11,30.07,10,4,0,10,2,14,0.00,0,Fog,294
2012-11-21,58,44,29,42,36,28,100,78,55,30.14,30.04,29.89,10,5,0,15,7,20,0.00,0,Fog,163
2012-11-22,62,46,29,42,38,23,89,68,47,29.87,29.70,29.60,10,10,4,31,14,39,T,3,Snow,218
2012-11-23,29,25,21,19,17,11,81,69,57,30.25,29.96,29.73,10,9,2,30,18,40,T,8,Snow,301
2012-11-24,27,23,19,21,14,10,67,59,50,30.26,30.06,29.82,10,7,1,17,7,25,0.07,6,Snow,170
2012-11-25,29,27,24,23,20,14,88,73,57,30.09,29.89,29.77,10,9,1,20,10,25,0.04,8,Snow,263
2012-11-26,24,17,10,20,9,4,81,67,52,30.40,30.27,30.05,10,9,5,15,8,22,T,2,Snow,300
2012-11-27,30,20,10,18,12,4,83,65,47,30.38,30.24,30.10,10,10,4,15,7,20,T,4,Snow,233
2012-11-28,30,25,20,21,17,14,81,70,58,30.34,30.24,30.12,10,10,9,14,6,18,0.00,3,,280
2012-11-29,39,31,22,25,23,19,92,76,59,30.22,30.17,30.13,10,9,6,17,6,23,0.00,4,,89
2012-11-30,32,29,26,31,27,22,100,91,81,30.26,30.21,30.15,10,6,2,18,8,25,T,8,,86